createdAt,value
2018-08-06T00:00:03.365Z,0.00
2018-08-06T00:01:03.278Z,0.00
2018-08-06T00:02:03.228Z,0.00
2018-08-06T00:03:03.154Z,0.00
2018-08-06T00:04:03.068Z,0.00
2018-08-06T00:05:02.963Z,0.00
2018-08-06T00:06:02.930Z,0.00
2018-08-06T00:07:02.814Z,0.00
2018-08-06T00:08:02.757Z,0.00
2018-08-06T00:09:02.653Z,0.00
2018-08-06T00:10:02.592Z,0.00
2018-08-06T00:11:02.534Z,0.00
2018-08-06T00:12:02.435Z,0.00
2018-08-06T00:13:02.344Z,0.00
2018-08-06T00:14:02.306Z,0.00
2018-08-06T00:15:02.190Z,0.00
2018-08-06T00:16:02.132Z,0.00
2018-08-06T00:17:02.035Z,0.00
2018-08-06T00:18:01.964Z,0.00
2018-08-06T00:19:01.909Z,0.00
2018-08-06T00:20:01.839Z,0.00
2018-08-06T00:21:01.737Z,0.00
2018-08-06T00:22:01.659Z,0.00
2018-08-06T00:23:01.581Z,0.00
2018-08-06T00:24:01.520Z,0.00
2018-08-06T00:25:01.439Z,0.00
2018-08-06T00:26:01.370Z,0.00
2018-08-06T00:27:01.270Z,0.00
2018-08-06T00:28:01.192Z,0.00
2018-08-06T00:29:01.128Z,0.00
2018-08-06T00:30:01.062Z,0.00
2018-08-06T00:31:00.956Z,0.00
2018-08-06T00:32:00.914Z,0.00
2018-08-06T00:33:00.801Z,0.00
2018-08-06T00:34:00.741Z,0.00
2018-08-06T00:35:00.657Z,0.00
2018-08-06T00:36:00.577Z,0.00
2018-08-06T00:37:00.485Z,0.00
2018-08-06T00:38:00.413Z,0.00
2018-08-06T00:39:00.324Z,0.00
2018-08-06T00:40:00.281Z,0.00
2018-08-06T00:41:00.189Z,0.00
2018-08-06T00:42:00.104Z,0.00
2018-08-06T00:43:00.037Z,0.00
2018-08-06T00:45:42.272Z,0.00
2018-08-06T00:48:24.243Z,0.00
2018-08-06T00:49:24.198Z,0.00
2018-08-06T00:50:24.106Z,0.00
2018-08-06T00:51:24.013Z,0.00
2018-08-06T00:52:23.959Z,0.00
2018-08-06T00:55:06.255Z,0.00
2018-08-06T00:56:06.179Z,0.00
2018-08-06T00:57:06.114Z,0.00
2018-08-06T00:58:06.024Z,0.00
2018-08-06T00:59:05.975Z,0.00
2018-08-06T01:00:05.866Z,0.00
2018-08-06T01:01:05.807Z,0.00
2018-08-06T01:02:05.717Z,0.00
2018-08-06T01:03:05.629Z,0.00
2018-08-06T01:04:05.576Z,0.00
2018-08-06T01:05:05.476Z,0.00
2018-08-06T01:06:05.422Z,0.00
2018-08-06T01:07:05.318Z,0.00
2018-08-06T01:09:47.264Z,0.00
2018-08-06T01:12:29.281Z,0.00
2018-08-06T01:13:29.218Z,0.00
2018-08-06T01:14:29.105Z,0.00
2018-08-06T01:15:29.046Z,0.00
2018-08-06T01:16:28.988Z,0.00
2018-08-06T01:19:11.262Z,0.00
2018-08-06T01:20:11.186Z,0.00
2018-08-06T01:21:11.134Z,0.00
2018-08-06T01:22:11.036Z,0.00
2018-08-06T01:23:10.952Z,0.00
2018-08-06T01:24:10.875Z,0.00
2018-08-06T01:25:10.800Z,0.00
2018-08-06T01:26:11.752Z,0.00
2018-08-06T01:27:10.629Z,0.00
2018-08-06T01:28:10.573Z,0.00
2018-08-06T01:29:10.479Z,0.00
2018-08-06T01:31:52.783Z,0.00
2018-08-06T01:32:52.687Z,0.00
2018-08-06T01:33:52.609Z,0.00
2018-08-06T01:34:52.534Z,0.00
2018-08-06T01:35:52.453Z,0.00
2018-08-06T01:36:52.407Z,0.00
2018-08-06T01:37:52.311Z,0.00
2018-08-06T01:38:52.219Z,0.00
2018-08-06T01:39:52.139Z,0.00
2018-08-06T01:40:52.075Z,0.00
2018-08-06T01:41:52.003Z,0.00
2018-08-06T01:42:51.988Z,0.00
2018-08-06T01:43:51.824Z,0.00
2018-08-06T01:46:33.762Z,0.00
2018-08-06T01:47:34.713Z,0.00
2018-08-06T01:48:33.650Z,0.00
2018-08-06T01:49:33.553Z,0.00
2018-08-06T01:50:33.457Z,0.00
2018-08-06T01:51:33.407Z,0.00
2018-08-06T01:52:33.325Z,0.00
2018-08-06T01:53:33.242Z,0.00
2018-08-06T01:54:33.170Z,0.00
2018-08-06T01:55:33.064Z,0.00
2018-08-06T01:56:32.991Z,0.00
2018-08-06T01:57:32.922Z,0.00
2018-08-06T01:58:32.842Z,0.00
2018-08-06T02:01:14.763Z,0.00
2018-08-06T02:02:14.725Z,0.00
2018-08-06T02:03:14.630Z,0.00
2018-08-06T02:04:14.558Z,0.00
2018-08-06T02:05:14.455Z,0.00
2018-08-06T02:06:14.386Z,0.00
2018-08-06T02:07:14.294Z,0.00
2018-08-06T02:08:14.284Z,0.00
2018-08-06T02:09:14.147Z,0.00
2018-08-06T02:10:14.079Z,0.00
2018-08-06T02:11:13.982Z,0.00
2018-08-06T02:12:13.917Z,0.00
2018-08-06T02:13:13.870Z,0.00
2018-08-06T02:14:13.772Z,0.00
2018-08-06T02:15:13.685Z,0.00
2018-08-06T02:16:13.603Z,0.00
2018-08-06T02:17:13.513Z,0.00
2018-08-06T02:18:13.458Z,0.00
2018-08-06T02:19:13.374Z,0.00
2018-08-06T02:20:13.297Z,0.00
2018-08-06T02:21:13.209Z,0.00
2018-08-06T02:22:13.140Z,0.00
2018-08-06T02:23:13.054Z,0.00
2018-08-06T02:24:14.040Z,0.00
2018-08-06T02:25:12.895Z,0.00
2018-08-06T02:26:12.828Z,0.00
2018-08-06T02:27:12.738Z,0.00
2018-08-06T02:29:54.813Z,0.00
2018-08-06T02:30:54.717Z,0.00
2018-08-06T02:31:54.642Z,0.00
2018-08-06T02:32:54.544Z,0.00
2018-08-06T02:33:54.489Z,0.00
2018-08-06T02:34:54.390Z,0.00
2018-08-06T02:35:54.334Z,0.00
2018-08-06T02:36:54.253Z,0.00
2018-08-06T02:37:54.146Z,0.00
2018-08-06T02:38:54.100Z,0.00
2018-08-06T02:39:53.995Z,0.00
2018-08-06T02:40:54.935Z,0.00
2018-08-06T02:41:53.870Z,0.00
2018-08-06T02:42:53.775Z,0.00
2018-08-06T02:43:53.690Z,0.00
2018-08-06T02:44:53.635Z,0.00
2018-08-06T02:45:53.547Z,0.00
2018-08-06T02:46:53.465Z,0.00
2018-08-06T02:47:53.368Z,0.00
2018-08-06T02:48:53.300Z,0.00
2018-08-06T02:49:53.223Z,0.00
2018-08-06T02:50:54.174Z,0.00
2018-08-06T02:51:53.050Z,0.00
2018-08-06T02:52:52.983Z,0.00
2018-08-06T02:53:52.971Z,0.00
2018-08-06T02:54:52.836Z,0.00
2018-08-06T02:55:52.736Z,0.00
2018-08-06T02:56:52.739Z,0.00
2018-08-06T02:57:52.581Z,0.00
2018-08-06T02:58:52.515Z,0.00
2018-08-06T02:59:52.424Z,0.00
2018-08-06T03:00:52.363Z,0.00
2018-08-06T03:01:52.297Z,0.00
2018-08-06T03:02:52.203Z,0.00
2018-08-06T03:03:52.109Z,0.00
2018-08-06T03:04:52.043Z,0.00
2018-08-06T03:05:51.959Z,0.00
2018-08-06T03:06:51.923Z,0.00
2018-08-06T03:07:51.792Z,0.00
2018-08-06T03:08:51.728Z,0.00
2018-08-06T03:09:51.663Z,0.00
2018-08-06T03:10:51.572Z,0.00
2018-08-06T03:11:51.958Z,0.00
2018-08-06T03:12:51.406Z,0.00
2018-08-06T03:13:51.326Z,0.00
2018-08-06T03:14:51.269Z,0.00
2018-08-06T03:15:51.169Z,0.00
2018-08-06T03:16:51.146Z,0.00
2018-08-06T03:17:51.051Z,0.00
2018-08-06T03:18:50.945Z,0.00
2018-08-06T03:19:50.854Z,0.00
2018-08-06T03:20:50.785Z,0.00
2018-08-06T03:21:50.731Z,0.00
2018-08-06T03:22:51.647Z,0.00
2018-08-06T03:23:50.555Z,0.00
2018-08-06T03:24:50.482Z,0.00
2018-08-06T03:25:50.393Z,0.00
2018-08-06T03:28:32.342Z,0.00
2018-08-06T03:29:32.260Z,4.00
2018-08-06T03:30:32.136Z,4.00
2018-08-06T03:31:32.057Z,0.00
2018-08-06T03:32:31.978Z,4.00
2018-08-06T03:33:31.922Z,4.00
2018-08-06T03:34:31.829Z,4.00
2018-08-06T03:35:31.769Z,4.00
2018-08-06T03:36:31.668Z,4.00
2018-08-06T03:37:31.601Z,8.00
2018-08-06T03:38:31.536Z,8.00
2018-08-06T03:39:31.435Z,8.00
2018-08-06T03:40:31.353Z,8.00
2018-08-06T03:43:13.310Z,12.00
2018-08-06T03:44:14.233Z,16.00
2018-08-06T03:45:13.148Z,20.00
2018-08-06T03:46:13.101Z,20.00
2018-08-06T03:47:12.996Z,24.00
2018-08-06T03:48:12.941Z,28.00
2018-08-06T03:49:12.861Z,32.00
2018-08-06T03:50:12.764Z,36.00
2018-08-06T03:51:12.683Z,40.00
2018-08-06T03:52:12.597Z,48.00
2018-08-06T03:53:12.522Z,52.00
2018-08-06T03:54:13.446Z,56.00
2018-08-06T03:55:12.356Z,64.00
2018-08-06T03:56:12.308Z,76.00
2018-08-06T03:57:12.199Z,80.00
2018-08-06T03:58:12.140Z,92.00
2018-08-06T03:59:12.145Z,100.00
2018-08-06T04:01:54.313Z,128.00
2018-08-06T04:02:54.230Z,140.00
2018-08-06T04:03:54.142Z,152.00
2018-08-06T04:04:55.125Z,168.00
2018-08-06T04:05:54.019Z,180.00
2018-08-06T04:06:53.914Z,196.00
2018-08-06T04:07:53.839Z,204.00
2018-08-06T04:08:53.761Z,220.00
2018-08-06T04:09:53.704Z,240.00
2018-08-06T04:10:53.654Z,252.00
2018-08-06T04:11:53.518Z,272.00
2018-08-06T04:14:35.840Z,316.00
2018-08-06T04:15:35.745Z,336.00
2018-08-06T04:16:35.663Z,352.00
2018-08-06T04:19:17.854Z,404.00
2018-08-06T04:20:17.768Z,424.00
2018-08-06T04:21:17.654Z,440.00
2018-08-06T04:22:17.598Z,464.00
2018-08-06T04:23:17.535Z,488.00
2018-08-06T04:24:17.442Z,508.00
2018-08-06T04:25:17.385Z,532.00
2018-08-06T04:26:17.268Z,556.00
2018-08-06T04:27:17.187Z,576.00
2018-08-06T04:28:17.113Z,596.00
2018-08-06T04:29:17.021Z,624.00
2018-08-06T04:30:17.972Z,652.00
2018-08-06T04:31:16.860Z,680.00
2018-08-06T04:32:16.802Z,704.00
2018-08-06T04:33:16.721Z,728.00
2018-08-06T04:34:16.643Z,748.00
2018-08-06T04:35:16.581Z,768.00
2018-08-06T04:37:58.831Z,828.00
2018-08-06T04:38:58.756Z,848.00
2018-08-06T04:39:58.703Z,872.00
2018-08-06T04:40:58.627Z,892.00
2018-08-06T04:41:58.495Z,912.00
2018-08-06T04:42:58.429Z,932.00
2018-08-06T04:43:58.334Z,948.00
2018-08-06T04:44:58.301Z,980.00
2018-08-06T04:45:58.229Z,1004.00
2018-08-06T04:48:40.316Z,1036.00
2018-08-06T04:49:40.253Z,1060.00
2018-08-06T04:50:40.185Z,1076.00
2018-08-06T04:51:40.123Z,1092.00
2018-08-06T04:52:40.010Z,1116.00
2018-08-06T04:55:21.824Z,1180.00
2018-08-06T04:56:21.777Z,1172.00
2018-08-06T04:57:21.662Z,1196.00
2018-08-06T04:58:21.592Z,1232.00
2018-08-06T04:59:21.508Z,1240.00
2018-08-06T05:00:21.455Z,1256.00
2018-08-06T05:01:21.369Z,1272.00
2018-08-06T05:02:21.278Z,1316.00
2018-08-06T05:03:21.192Z,1316.00
2018-08-06T05:04:21.128Z,1324.00
2018-08-06T05:05:21.039Z,1340.00
2018-08-06T05:06:22.002Z,1368.00
2018-08-06T05:07:20.887Z,1368.00
2018-08-06T05:08:20.817Z,1392.00
2018-08-06T05:09:20.743Z,1412.00
2018-08-06T05:10:20.651Z,1412.00
2018-08-06T05:11:20.585Z,1444.00
2018-08-06T05:12:20.487Z,1452.00
2018-08-06T05:13:20.400Z,1468.00
2018-08-06T05:14:20.341Z,1456.00
2018-08-06T05:15:20.246Z,1492.00
2018-08-06T05:16:20.200Z,1536.00
2018-08-06T05:17:20.183Z,1560.00
2018-08-06T05:18:20.034Z,1560.00
2018-08-06T05:19:19.953Z,1600.00
2018-08-06T05:20:19.867Z,1588.00
2018-08-06T05:21:19.771Z,1596.00
2018-08-06T05:22:20.738Z,1612.00
2018-08-06T05:23:19.613Z,1644.00
2018-08-06T05:24:19.559Z,1636.00
2018-08-06T05:25:19.469Z,1680.00
2018-08-06T05:26:19.386Z,1652.00
2018-08-06T05:27:19.306Z,1696.00
2018-08-06T05:28:20.298Z,1704.00
2018-08-06T05:29:19.168Z,1712.00
2018-08-06T05:30:19.101Z,1712.00
2018-08-06T05:31:19.034Z,1756.00
2018-08-06T05:32:18.943Z,1784.00
2018-08-06T05:33:18.866Z,1780.00
2018-08-06T05:34:18.790Z,1776.00
2018-08-06T05:35:18.685Z,1808.00
2018-08-06T05:36:18.618Z,1800.00
2018-08-06T05:37:18.519Z,1816.00
2018-08-06T05:38:18.465Z,1860.00
2018-08-06T05:39:18.394Z,1896.00
2018-08-06T05:40:18.297Z,1860.00
2018-08-06T05:41:18.205Z,1892.00
2018-08-06T05:42:18.126Z,1888.00
2018-08-06T05:43:18.077Z,1904.00
2018-08-06T05:44:17.976Z,1900.00
2018-08-06T05:45:17.894Z,1908.00
2018-08-06T05:46:17.810Z,1932.00
2018-08-06T05:47:17.724Z,1912.00
2018-08-06T05:48:17.729Z,2012.00
2018-08-06T05:49:17.573Z,2000.00
2018-08-06T05:50:17.516Z,1984.00
2018-08-06T05:51:17.415Z,2004.00
2018-08-06T05:52:17.345Z,2020.00
2018-08-06T05:53:17.293Z,2024.00
2018-08-06T05:54:17.199Z,2044.00
2018-08-06T05:55:17.094Z,2040.00
2018-08-06T05:56:17.036Z,2080.00
2018-08-06T05:57:16.940Z,2088.00
2018-08-06T05:58:16.919Z,2156.00
2018-08-06T05:59:16.793Z,2120.00
2018-08-06T06:01:58.840Z,2240.00
2018-08-06T06:02:58.787Z,2344.00
2018-08-06T06:03:58.699Z,2364.00
2018-08-06T06:04:58.611Z,2404.00
2018-08-06T06:05:58.552Z,2496.00
2018-08-06T06:08:40.371Z,2824.00
2018-08-06T06:09:40.277Z,3104.00
2018-08-06T06:10:40.200Z,3576.00
2018-08-06T06:11:40.122Z,4904.00
2018-08-06T06:12:40.058Z,6676.00
2018-08-06T06:13:39.992Z,7860.00
2018-08-06T06:14:39.892Z,8052.00
2018-08-06T06:15:39.815Z,8672.00
2018-08-06T06:16:39.730Z,8816.00
2018-08-06T06:19:21.879Z,9252.00
2018-08-06T06:20:21.782Z,8908.00
2018-08-06T06:21:21.689Z,9260.00
2018-08-06T06:22:21.619Z,9008.00
2018-08-06T06:23:21.552Z,9004.00
2018-08-06T06:24:21.513Z,8960.00
2018-08-06T06:25:21.405Z,9440.00
2018-08-06T06:26:21.315Z,9176.00
2018-08-06T06:27:21.231Z,9368.00
2018-08-06T06:28:21.163Z,9244.00
2018-08-06T06:29:21.115Z,9272.00
2018-08-06T06:30:21.025Z,9552.00
2018-08-06T06:31:21.048Z,9028.00
2018-08-06T06:32:20.874Z,9452.00
2018-08-06T06:33:20.784Z,9080.00
2018-08-06T06:34:20.813Z,9644.00
2018-08-06T06:35:20.658Z,9200.00
2018-08-06T06:36:20.577Z,9484.00
2018-08-06T06:37:20.492Z,9876.00
2018-08-06T06:38:20.443Z,9992.00
2018-08-06T06:39:20.365Z,9900.00
2018-08-06T06:40:20.282Z,9908.00
2018-08-06T06:41:20.196Z,9756.00
2018-08-06T06:44:02.357Z,9848.00
2018-08-06T06:45:02.341Z,10036.00
2018-08-06T06:46:02.230Z,10028.00
2018-08-06T06:48:44.394Z,10064.00
2018-08-06T06:49:44.299Z,10052.00
2018-08-06T06:50:44.239Z,10208.00
2018-08-06T06:51:44.153Z,10240.00
2018-08-06T06:52:44.078Z,10004.00
2018-08-06T06:53:43.998Z,10336.00
2018-08-06T06:54:43.916Z,10404.00
2018-08-06T06:55:43.873Z,10436.00
2018-08-06T06:56:43.773Z,10268.00
2018-08-06T06:57:43.706Z,10428.00
2018-08-06T06:58:43.661Z,10772.00
2018-08-06T06:59:43.571Z,10972.00
2018-08-06T07:00:43.510Z,12176.00
2018-08-06T07:01:43.457Z,12860.00
2018-08-06T07:02:43.346Z,13952.00
2018-08-06T07:03:43.284Z,14144.00
2018-08-06T07:04:43.232Z,14176.00
2018-08-06T07:05:43.167Z,14304.00
2018-08-06T07:06:43.078Z,14656.00
2018-08-06T07:07:44.014Z,15008.00
2018-08-06T07:08:42.925Z,15136.00
2018-08-06T07:09:42.901Z,16608.00
2018-08-06T07:10:42.772Z,16128.00
2018-08-06T07:11:42.757Z,16192.00
2018-08-06T07:12:42.639Z,16256.00
2018-08-06T07:13:42.597Z,11200.00
2018-08-06T07:14:42.506Z,17696.00
2018-08-06T07:15:42.476Z,16960.00
2018-08-06T07:16:42.357Z,25248.00
2018-08-06T07:17:42.311Z,16992.00
2018-08-06T07:18:42.204Z,19168.00
2018-08-06T07:19:42.146Z,16480.00
2018-08-06T07:20:42.065Z,18112.00
2018-08-06T07:21:43.011Z,18720.00
2018-08-06T07:22:41.942Z,19712.00
2018-08-06T07:23:41.857Z,19808.00
2018-08-06T07:24:41.783Z,19136.00
2018-08-06T07:25:41.741Z,12324.00
2018-08-06T07:26:41.669Z,20704.00
2018-08-06T07:27:41.609Z,21344.00
2018-08-06T07:28:41.506Z,21088.00
2018-08-06T07:29:41.438Z,22304.00
2018-08-06T07:30:41.364Z,22688.00
2018-08-06T07:31:41.329Z,23360.00
2018-08-06T07:32:41.231Z,23456.00
2018-08-06T07:33:41.257Z,24512.00
2018-08-06T07:34:41.092Z,24832.00
2018-08-06T07:37:23.420Z,25888.00
2018-08-06T07:38:23.314Z,26400.00
2018-08-06T07:39:23.242Z,26784.00
2018-08-06T07:42:05.398Z,25920.00
2018-08-06T07:43:05.339Z,25440.00
2018-08-06T07:44:05.309Z,26016.00
2018-08-06T07:45:05.169Z,27584.00
2018-08-06T07:46:05.097Z,29472.00
2018-08-06T07:47:05.066Z,29984.00
2018-08-06T07:48:04.957Z,29664.00
2018-08-06T07:49:04.906Z,28032.00
2018-08-06T07:50:04.839Z,38304.00
2018-08-06T07:52:46.918Z,30816.00
2018-08-06T07:55:28.926Z,34688.00
2018-08-06T07:56:28.864Z,33344.00
2018-08-06T07:57:28.752Z,33536.00
2018-08-06T07:58:28.725Z,35232.00
2018-08-06T07:59:28.627Z,34144.00
2018-08-06T08:00:28.580Z,35744.00
2018-08-06T08:01:28.473Z,36160.00
2018-08-06T08:04:10.400Z,38368.00
2018-08-06T08:05:10.333Z,38304.00
2018-08-06T08:06:10.327Z,39264.00
2018-08-06T08:07:10.197Z,38976.00
2018-08-06T08:08:10.110Z,38720.00
2018-08-06T08:09:11.093Z,39520.00
2018-08-06T08:10:09.978Z,39008.00
2018-08-06T08:11:09.914Z,0.00
2018-08-06T08:12:09.849Z,39808.00
2018-08-06T08:13:09.772Z,41984.00
2018-08-06T08:14:09.730Z,44544.00
2018-08-06T08:15:09.648Z,44768.00
2018-08-06T08:16:09.589Z,44000.00
2018-08-06T08:17:09.526Z,42752.00
2018-08-06T08:18:09.441Z,45056.00
2018-08-06T08:20:51.564Z,43520.00
2018-08-06T08:21:51.365Z,43840.00
2018-08-06T08:22:51.270Z,45408.00
2018-08-06T08:23:51.226Z,46144.00
2018-08-06T08:24:51.126Z,36352.00
2018-08-06T08:25:51.106Z,44416.00
2018-08-06T08:26:50.995Z,50368.00
2018-08-06T08:27:50.931Z,47488.00
2018-08-06T08:28:50.882Z,48000.00
2018-08-06T08:29:50.810Z,48928.00
2018-08-06T08:30:50.785Z,47328.00
2018-08-06T08:31:50.670Z,47232.00
2018-08-06T08:32:50.584Z,47040.00
2018-08-06T08:35:32.898Z,43328.00
2018-08-06T08:36:32.947Z,50080.00
2018-08-06T08:37:32.766Z,52608.00
2018-08-06T08:38:32.728Z,51808.00
2018-08-06T08:39:32.651Z,52608.00
2018-08-06T08:40:32.580Z,53280.00
2018-08-06T08:41:32.530Z,53536.00
2018-08-06T08:42:32.459Z,33504.00
2018-08-06T08:43:32.384Z,27584.00
2018-08-06T08:46:14.398Z,55392.00
2018-08-06T08:47:15.410Z,54400.00
2018-08-06T08:48:14.272Z,54112.00
2018-08-06T08:50:56.460Z,55744.00
2018-08-06T08:51:56.355Z,55136.00
2018-08-06T08:52:56.299Z,53248.00
2018-08-06T08:53:56.241Z,53056.00
2018-08-06T08:54:56.151Z,56384.00
2018-08-06T08:55:56.093Z,59520.00
2018-08-06T08:56:56.048Z,59904.00
2018-08-06T08:57:55.997Z,59840.00
2018-08-06T08:58:55.984Z,61856.00
2018-08-06T08:59:55.872Z,61504.00
2018-08-06T09:00:55.761Z,57472.00
2018-08-06T09:01:55.719Z,60064.00
2018-08-06T09:02:55.667Z,45344.00
2018-08-06T09:03:55.568Z,21536.00
2018-08-06T09:04:55.499Z,31840.00
2018-08-06T09:05:55.450Z,41152.00
2018-08-06T09:06:55.355Z,34528.00
2018-08-06T09:07:55.312Z,41984.00
2018-08-06T09:08:55.296Z,58016.00
2018-08-06T09:09:55.224Z,40640.00
2018-08-06T09:10:55.128Z,66592.00
2018-08-06T09:13:37.424Z,67040.00
2018-08-06T09:14:37.383Z,66464.00
2018-08-06T09:15:37.330Z,66624.00
2018-08-06T09:18:19.420Z,68096.00
2018-08-06T09:19:19.473Z,67136.00
2018-08-06T09:20:19.400Z,45824.00
2018-08-06T09:21:19.237Z,61984.00
2018-08-06T09:22:19.149Z,52352.00
2018-08-06T09:25:01.429Z,68256.00
2018-08-06T09:26:02.396Z,72096.00
2018-08-06T09:27:01.509Z,71200.00
2018-08-06T09:28:01.231Z,68640.00
2018-08-06T09:29:01.165Z,67904.00
2018-08-06T09:30:01.177Z,69440.00
2018-08-06T09:31:01.034Z,71168.00
2018-08-06T09:32:00.979Z,72320.00
2018-08-06T09:33:00.901Z,74080.00
2018-08-06T09:34:00.889Z,68288.00
2018-08-06T09:35:00.814Z,75680.00
2018-08-06T09:36:00.747Z,76064.00
2018-08-06T09:37:00.662Z,75840.00
2018-08-06T09:38:00.590Z,76512.00
2018-08-06T09:39:00.547Z,77216.00
2018-08-06T09:40:00.464Z,77536.00
2018-08-06T09:41:00.422Z,78304.00
2018-08-06T09:42:00.347Z,77376.00
2018-08-06T09:43:00.264Z,76256.00
2018-08-06T09:44:00.231Z,77248.00
2018-08-06T09:45:00.170Z,77312.00
2018-08-06T09:46:00.122Z,76512.00
2018-08-06T09:47:00.024Z,76960.00
2018-08-06T09:47:59.961Z,80128.00
2018-08-06T09:48:59.879Z,83072.00
2018-08-06T09:49:59.828Z,84160.00
2018-08-06T09:50:59.777Z,83328.00
2018-08-06T09:53:41.926Z,66496.00
2018-08-06T09:54:41.887Z,73760.00
2018-08-06T09:55:41.826Z,71520.00
2018-08-06T09:56:41.747Z,7584.00
2018-08-06T09:57:41.692Z,79808.00
2018-08-06T10:00:23.934Z,80512.00
2018-08-06T10:01:23.911Z,83104.00
2018-08-06T10:02:23.824Z,83520.00
2018-08-06T10:03:23.769Z,83328.00
2018-08-06T10:04:23.671Z,84480.00
2018-08-06T10:07:05.980Z,89792.00
2018-08-06T10:08:05.880Z,87072.00
2018-08-06T10:09:05.826Z,83872.00
2018-08-06T10:10:05.788Z,84448.00
2018-08-06T10:11:05.716Z,83392.00
2018-08-06T10:13:47.960Z,89728.00
2018-08-06T10:16:29.974Z,86016.00
2018-08-06T10:17:29.879Z,90400.00
2018-08-06T10:18:29.823Z,93120.00
2018-08-06T10:19:29.794Z,92352.00
2018-08-06T10:20:29.684Z,94656.00
2018-08-06T10:21:29.627Z,90976.00
2018-08-06T10:22:29.625Z,77696.00
2018-08-06T10:25:11.948Z,53696.00
2018-08-06T10:27:53.952Z,62400.00
2018-08-06T10:28:53.883Z,61248.00
2018-08-06T10:29:53.828Z,66784.00
2018-08-06T10:30:53.788Z,71328.00
2018-08-06T10:31:53.696Z,74816.00
2018-08-06T10:32:53.687Z,78176.00
2018-08-06T10:33:53.570Z,79424.00
2018-08-06T10:34:53.522Z,81504.00
2018-08-06T10:35:53.457Z,81696.00
2018-08-06T10:36:53.405Z,80928.00
2018-08-06T10:37:53.365Z,78816.00
2018-08-06T10:38:53.291Z,73344.00
2018-08-06T10:39:53.223Z,76128.00
2018-08-06T10:42:35.441Z,78496.00
2018-08-06T10:43:35.422Z,76832.00
2018-08-06T10:44:35.337Z,75168.00
2018-08-06T10:45:35.274Z,70592.00
2018-08-06T10:46:35.205Z,63392.00
2018-08-06T10:47:35.164Z,60224.00
2018-08-06T10:48:35.135Z,63744.00
2018-08-06T10:49:35.024Z,73792.00
2018-08-06T10:50:34.959Z,85408.00
2018-08-06T10:51:34.905Z,93408.00
2018-08-06T10:52:34.836Z,98784.00
2018-08-06T10:53:34.814Z,99584.00
2018-08-06T10:54:34.705Z,100096.00
2018-08-06T10:55:34.661Z,100288.00
2018-08-06T10:56:34.589Z,97472.00
2018-08-06T10:59:16.508Z,96256.00
2018-08-06T11:01:58.471Z,101088.00
2018-08-06T11:02:58.420Z,100640.00
2018-08-06T11:03:58.378Z,102656.00
2018-08-06T11:04:59.311Z,103616.00
2018-08-06T11:05:58.242Z,103072.00
2018-08-06T11:08:40.477Z,100288.00
2018-08-06T11:09:40.386Z,100128.00
2018-08-06T11:10:40.358Z,99232.00
2018-08-06T11:11:40.275Z,100480.00
2018-08-06T11:12:40.230Z,101024.00
2018-08-06T11:13:40.149Z,102176.00
2018-08-06T11:14:40.099Z,101568.00
2018-08-06T11:15:40.085Z,102016.00
2018-08-06T11:16:39.988Z,99712.00
2018-08-06T11:17:39.936Z,102624.00
2018-08-06T11:18:39.865Z,103808.00
2018-08-06T11:19:39.822Z,104896.00
2018-08-06T11:20:39.783Z,106432.00
2018-08-06T11:21:39.680Z,105600.00
2018-08-06T11:22:39.635Z,106272.00
2018-08-06T11:23:39.567Z,105568.00
2018-08-06T11:24:39.513Z,105056.00
2018-08-06T11:25:39.463Z,105184.00
2018-08-06T11:26:39.382Z,104096.00
2018-08-06T11:27:39.332Z,98688.00
2018-08-06T11:28:39.262Z,97024.00
2018-08-06T11:29:39.233Z,96064.00
2018-08-06T11:30:39.168Z,104704.00
2018-08-06T11:31:39.105Z,105984.00
2018-08-06T11:32:39.066Z,104096.00
2018-08-06T11:35:21.046Z,101696.00
2018-08-06T11:36:20.903Z,105088.00
2018-08-06T11:37:20.837Z,108864.00
2018-08-06T11:38:20.786Z,110240.00
2018-08-06T11:39:20.733Z,109920.00
2018-08-06T11:40:21.699Z,108992.00
2018-08-06T11:41:20.606Z,108544.00
2018-08-06T11:42:20.559Z,108064.00
2018-08-06T11:43:20.494Z,108096.00
2018-08-06T11:44:20.429Z,107200.00
2018-08-06T11:45:20.366Z,106368.00
2018-08-06T11:46:20.323Z,106048.00
2018-08-06T11:47:20.269Z,107392.00
2018-08-06T11:48:20.193Z,108384.00
2018-08-06T11:49:20.163Z,109248.00
2018-08-06T11:52:02.484Z,106656.00
2018-08-06T11:53:02.422Z,103264.00
2018-08-06T11:54:02.406Z,106112.00
2018-08-06T11:55:02.289Z,107296.00
2018-08-06T11:56:02.280Z,110496.00
2018-08-06T11:57:02.190Z,109984.00
2018-08-06T11:58:02.109Z,108992.00
2018-08-06T11:59:02.061Z,107392.00
2018-08-06T12:00:01.995Z,106784.00
2018-08-06T12:01:01.993Z,99680.00
2018-08-06T12:02:01.973Z,83392.00
2018-08-06T12:03:01.834Z,29760.00
2018-08-06T12:04:01.762Z,5756.00
2018-08-06T12:05:01.706Z,5336.00
2018-08-06T12:06:01.642Z,5132.00
2018-08-06T12:07:01.679Z,5028.00
2018-08-06T12:08:01.570Z,4956.00
2018-08-06T12:10:43.491Z,4844.00
2018-08-06T12:11:44.531Z,4788.00
2018-08-06T12:12:43.358Z,4756.00
2018-08-06T12:13:43.340Z,4712.00
2018-08-06T12:14:43.219Z,4692.00
2018-08-06T12:15:43.177Z,4652.00
2018-08-06T12:16:43.227Z,4604.00
2018-08-06T12:17:43.065Z,4596.00
2018-08-06T12:18:42.970Z,4556.00
2018-08-06T12:19:42.903Z,4532.00
2018-08-06T12:20:42.845Z,4520.00
2018-08-06T12:21:42.785Z,4500.00
2018-08-06T12:22:42.717Z,4472.00
2018-08-06T12:23:42.686Z,4456.00
2018-08-06T12:24:42.562Z,4436.00
2018-08-06T12:27:24.617Z,4396.00
2018-08-06T12:28:24.498Z,4392.00
2018-08-06T12:29:24.363Z,4348.00
2018-08-06T12:30:24.273Z,4316.00
2018-08-06T12:31:24.202Z,4304.00
2018-08-06T12:32:24.176Z,4272.00
2018-08-06T12:33:24.098Z,4268.00
2018-08-06T12:34:24.029Z,4236.00
2018-08-06T12:35:23.929Z,4220.00
2018-08-06T12:36:23.869Z,4220.00
2018-08-06T12:37:24.246Z,4240.00
2018-08-06T12:38:24.762Z,4172.00
2018-08-06T12:39:23.685Z,4176.00
2018-08-06T12:40:23.604Z,4204.00
2018-08-06T12:41:23.579Z,4120.00
2018-08-06T12:42:23.486Z,4100.00
2018-08-06T12:43:23.386Z,4092.00
2018-08-06T12:44:24.362Z,4084.00
2018-08-06T12:45:23.248Z,4080.00
2018-08-06T12:46:23.189Z,4064.00
2018-08-06T12:47:23.133Z,4024.00
2018-08-06T12:50:05.008Z,4036.00
2018-08-06T12:51:04.932Z,3992.00
2018-08-06T12:52:04.849Z,4016.00
2018-08-06T12:53:04.779Z,3968.00
2018-08-06T12:54:04.713Z,3980.00
2018-08-06T12:55:04.688Z,3964.00
2018-08-06T12:56:04.579Z,4092.00
2018-08-06T12:57:04.520Z,3892.00
2018-08-06T12:58:04.424Z,3984.00
2018-08-06T12:59:04.370Z,3948.00
2018-08-06T13:00:04.323Z,3936.00
2018-08-06T13:01:04.223Z,3852.00
2018-08-06T13:02:04.203Z,3952.00
2018-08-06T13:03:04.089Z,3896.00
2018-08-06T13:04:04.030Z,3848.00
2018-08-06T13:05:04.037Z,3868.00
2018-08-06T13:06:03.959Z,3876.00
2018-08-06T13:07:03.837Z,3864.00
2018-08-06T13:08:03.767Z,3824.00
2018-08-06T13:09:03.771Z,3832.00
2018-08-06T13:10:03.628Z,3824.00
2018-08-06T13:11:03.558Z,3848.00
2018-08-06T13:12:03.488Z,3812.00
2018-08-06T13:13:03.389Z,3752.00
2018-08-06T13:14:03.318Z,3760.00
2018-08-06T13:15:03.253Z,3708.00
2018-08-06T13:16:03.194Z,3688.00
2018-08-06T13:17:03.135Z,3676.00
2018-08-06T13:18:03.120Z,3664.00
2018-08-06T13:20:45.012Z,3640.00
2018-08-06T13:21:44.941Z,3624.00
2018-08-06T13:22:44.851Z,3620.00
2018-08-06T13:25:27.070Z,3604.00
2018-08-06T13:26:26.947Z,3596.00
2018-08-06T13:27:26.879Z,3608.00
2018-08-06T13:28:26.805Z,3588.00
2018-08-06T13:29:26.731Z,3584.00
2018-08-06T13:30:26.658Z,3568.00
2018-08-06T13:31:26.613Z,3560.00
2018-08-06T13:34:08.512Z,3504.00
2018-08-06T13:35:08.436Z,3520.00
2018-08-06T13:36:08.396Z,3472.00
2018-08-06T13:37:08.337Z,3468.00
2018-08-06T13:38:08.231Z,3444.00
2018-08-06T13:39:08.147Z,3456.00
2018-08-06T13:40:08.091Z,3424.00
2018-08-06T13:41:08.077Z,3392.00
2018-08-06T13:42:07.963Z,3380.00
2018-08-06T13:43:07.883Z,3336.00
2018-08-06T13:44:07.835Z,3376.00
2018-08-06T13:46:50.081Z,3340.00
2018-08-06T13:47:50.973Z,3324.00
2018-08-06T13:48:49.858Z,3332.00